createdAt,value
2023-02-12T00:01:16.716Z,2.27
2023-02-12T00:03:44.140Z,1.73
2023-02-12T00:06:13.601Z,2.10
2023-02-12T00:08:42.902Z,1.87
2023-02-12T00:11:29.639Z,1.63
2023-02-12T00:13:58.268Z,2.03
2023-02-12T00:16:29.509Z,2.10
2023-02-12T00:18:58.058Z,1.60
2023-02-12T00:21:25.513Z,1.83
2023-02-12T00:23:52.447Z,1.90
2023-02-12T00:26:21.546Z,2.43
2023-02-12T00:28:48.914Z,2.27
2023-02-12T00:31:18.768Z,1.77
2023-02-12T00:33:46.309Z,2.73
2023-02-12T00:36:20.058Z,2.20
2023-02-12T00:38:47.516Z,2.10
2023-02-12T00:41:14.721Z,1.70
2023-02-12T00:43:41.789Z,1.93
2023-02-12T00:46:09.101Z,1.73
2023-02-12T00:48:37.258Z,2.40
2023-02-12T00:51:05.615Z,2.73
2023-02-12T00:53:32.819Z,2.50
2023-02-12T00:56:00.182Z,1.97
2023-02-12T00:58:27.509Z,2.27
2023-02-12T01:00:54.811Z,2.00
2023-02-12T01:03:22.028Z,2.07
2023-02-12T01:05:49.001Z,2.40
2023-02-12T01:08:17.003Z,2.40
2023-02-12T01:10:44.815Z,1.87
2023-02-12T01:13:15.317Z,2.30
2023-02-12T01:15:42.644Z,1.67
2023-02-12T01:18:09.692Z,1.60
2023-02-12T01:20:36.716Z,1.47
2023-02-12T01:23:06.938Z,1.23
2023-02-12T01:25:34.030Z,1.50
2023-02-12T01:28:01.053Z,1.10
2023-02-12T01:30:27.985Z,1.53
2023-02-12T01:32:55.609Z,1.70
2023-02-12T01:35:22.537Z,0.90
2023-02-12T01:37:49.430Z,1.60
2023-02-12T01:40:18.839Z,1.33
2023-02-12T01:42:45.800Z,1.30
2023-02-12T01:45:12.769Z,1.03
2023-02-12T01:47:44.251Z,0.80
2023-02-12T01:50:17.215Z,0.70
2023-02-12T01:52:48.429Z,0.77
2023-02-12T01:55:15.990Z,1.00
2023-02-12T01:57:44.630Z,1.03
2023-02-12T02:00:15.749Z,1.10
2023-02-12T02:02:48.374Z,0.80
2023-02-12T02:05:23.282Z,1.00
2023-02-12T02:07:50.228Z,0.87
2023-02-12T02:10:17.515Z,1.37
2023-02-12T02:13:02.961Z,0.80
2023-02-12T02:15:31.824Z,1.00
2023-02-12T02:18:11.870Z,1.00
2023-02-12T02:21:16.307Z,0.90
2023-02-12T02:23:52.640Z,1.03
2023-02-12T02:26:37.666Z,1.23
2023-02-12T02:29:41.311Z,1.10
2023-02-12T02:32:25.032Z,1.30
2023-02-12T02:35:05.411Z,0.90
2023-02-12T02:37:43.208Z,1.10
2023-02-12T02:40:19.865Z,0.90
2023-02-12T02:43:04.858Z,1.00
2023-02-12T02:45:40.110Z,0.87
2023-02-12T02:48:14.284Z,1.17
2023-02-12T02:50:45.953Z,0.87
2023-02-12T02:53:35.356Z,0.90
2023-02-12T02:56:06.246Z,0.73
2023-02-12T02:58:39.400Z,1.33
2023-02-12T03:01:21.166Z,0.93
2023-02-12T03:04:46.612Z,1.20
2023-02-12T03:07:21.032Z,1.23
2023-02-12T03:10:02.359Z,0.80
2023-02-12T03:12:55.972Z,1.00
2023-02-12T03:15:34.596Z,0.90
2023-02-12T03:18:07.996Z,1.00
2023-02-12T03:20:46.044Z,0.80
2023-02-12T03:23:17.281Z,0.90
2023-02-12T03:26:18.262Z,1.53
2023-02-12T03:28:45.172Z,1.07
2023-02-12T03:31:28.789Z,1.13
2023-02-12T03:34:23.874Z,0.97
2023-02-12T03:36:56.894Z,0.60
2023-02-12T03:39:38.685Z,1.00
2023-02-12T03:42:41.436Z,0.73
2023-02-12T03:45:35.736Z,1.00
2023-02-12T03:48:36.115Z,1.23
2023-02-12T03:51:27.108Z,1.10
2023-02-12T03:53:56.372Z,1.37
2023-02-12T03:56:28.864Z,1.47
2023-02-12T03:58:56.031Z,1.13
2023-02-12T04:01:23.142Z,0.80
2023-02-12T04:03:50.220Z,0.90
2023-02-12T04:06:25.946Z,1.30
2023-02-12T04:08:55.056Z,1.00
2023-02-12T04:11:46.836Z,0.97
2023-02-12T04:14:29.536Z,0.93
2023-02-12T04:17:18.517Z,0.90
2023-02-12T04:19:54.443Z,0.73
2023-02-12T04:22:49.421Z,0.60
2023-02-12T04:25:27.138Z,1.10
2023-02-12T04:28:07.098Z,0.90
2023-02-12T04:31:11.914Z,0.70
2023-02-12T04:34:25.236Z,0.70
2023-02-12T04:36:59.324Z,0.80
2023-02-12T04:39:30.500Z,0.60
2023-02-12T04:42:04.529Z,0.70
2023-02-12T04:44:34.258Z,0.80
2023-02-12T04:47:01.613Z,0.80
2023-02-12T04:49:28.880Z,0.80
2023-02-12T04:51:56.032Z,0.40
2023-02-12T04:54:24.174Z,1.00
2023-02-12T04:56:51.392Z,0.60
2023-02-12T04:59:18.497Z,0.73
2023-02-12T05:01:45.880Z,1.13
2023-02-12T05:04:16.255Z,1.00
2023-02-12T05:06:44.438Z,0.60
2023-02-12T05:09:16.399Z,1.00
2023-02-12T05:11:43.831Z,0.80
2023-02-12T05:14:11.227Z,1.10
2023-02-12T05:16:38.337Z,0.90
2023-02-12T05:19:05.369Z,1.17
2023-02-12T05:21:32.279Z,0.80
2023-02-12T05:24:00.972Z,0.63
2023-02-12T05:26:27.875Z,1.10
2023-02-12T05:28:54.924Z,0.53
2023-02-12T05:31:22.573Z,1.00
2023-02-12T05:33:50.470Z,1.10
2023-02-12T05:36:20.300Z,0.80
2023-02-12T05:38:47.579Z,0.60
2023-02-12T05:41:20.880Z,0.60
2023-02-12T05:43:49.769Z,0.57
2023-02-12T05:46:18.129Z,0.90
2023-02-12T05:48:45.380Z,0.60
2023-02-12T05:51:13.894Z,0.67
2023-02-12T05:53:41.115Z,0.97
2023-02-12T05:56:13.953Z,0.70
2023-02-12T05:58:43.392Z,0.87
2023-02-12T06:01:11.863Z,0.60
2023-02-12T06:03:38.835Z,0.90
2023-02-12T06:06:06.156Z,0.50
2023-02-12T06:08:33.692Z,1.00
2023-02-12T06:11:05.136Z,0.80
2023-02-12T06:13:32.539Z,0.77
2023-02-12T06:16:00.525Z,0.63
2023-02-12T06:18:28.601Z,0.83
2023-02-12T06:20:55.586Z,1.10
2023-02-12T06:23:25.686Z,1.30
2023-02-12T06:25:57.021Z,0.83
2023-02-12T06:28:24.886Z,0.70
2023-02-12T06:30:52.059Z,0.57
2023-02-12T06:33:19.059Z,0.60
2023-02-12T06:35:46.034Z,0.80
2023-02-12T06:38:13.826Z,0.63
2023-02-12T06:40:41.266Z,0.53
2023-02-12T06:43:08.353Z,0.70
2023-02-12T06:45:35.619Z,0.97
2023-02-12T06:48:02.626Z,1.03
2023-02-12T06:50:29.841Z,0.83
2023-02-12T06:52:58.725Z,0.70
2023-02-12T06:55:25.723Z,0.80
2023-02-12T06:57:52.634Z,0.90
2023-02-12T07:00:20.129Z,0.80
2023-02-12T07:02:53.428Z,0.83
2023-02-12T07:05:20.518Z,1.17
2023-02-12T07:07:47.577Z,0.83
2023-02-12T07:10:14.503Z,1.00
2023-02-12T07:12:41.404Z,0.87
2023-02-12T07:15:08.817Z,1.03
2023-02-12T07:17:35.848Z,1.20
2023-02-12T07:20:03.844Z,1.00
2023-02-12T07:22:30.744Z,0.93
2023-02-12T07:24:57.646Z,1.40
2023-02-12T07:27:24.577Z,0.90
2023-02-12T07:29:51.954Z,1.20
2023-02-12T07:32:18.859Z,1.20
2023-02-12T07:34:46.815Z,0.80
2023-02-12T07:37:13.781Z,1.07
2023-02-12T07:39:40.625Z,0.77
2023-02-12T07:42:08.916Z,1.10
2023-02-12T07:44:36.191Z,0.67
2023-02-12T07:47:03.722Z,1.00
2023-02-12T07:49:30.631Z,0.97
2023-02-12T07:51:57.625Z,1.03
2023-02-12T07:54:24.689Z,0.83
2023-02-12T07:56:52.222Z,1.03
2023-02-12T07:59:20.654Z,1.33
2023-02-12T08:01:52.584Z,1.07
2023-02-12T08:04:22.228Z,1.03
2023-02-12T08:06:51.457Z,1.10
2023-02-12T08:09:21.413Z,0.93
2023-02-12T08:11:48.757Z,1.60
2023-02-12T08:14:19.081Z,0.90
2023-02-12T08:16:48.035Z,1.30
2023-02-12T08:19:20.271Z,1.30
2023-02-12T08:21:53.164Z,1.10
2023-02-12T08:24:22.100Z,1.37
2023-02-12T08:26:49.451Z,1.10
2023-02-12T08:29:19.486Z,1.50
2023-02-12T08:31:49.783Z,1.53
2023-02-12T08:34:22.586Z,1.17
2023-02-12T08:36:51.245Z,1.77
2023-02-12T08:39:18.917Z,1.87
2023-02-12T08:41:46.835Z,2.00
2023-02-12T08:44:14.005Z,1.97
2023-02-12T08:46:50.161Z,1.10
2023-02-12T08:49:20.195Z,1.73
2023-02-12T08:51:49.781Z,1.30
2023-02-12T08:54:19.973Z,1.60
2023-02-12T08:56:47.150Z,2.03
2023-02-12T08:59:15.416Z,1.30
2023-02-12T09:01:43.724Z,1.40
2023-02-12T09:04:21.879Z,1.60
2023-02-12T09:06:49.619Z,1.60
2023-02-12T09:09:17.224Z,2.20
2023-02-12T09:11:44.776Z,1.13
2023-02-12T09:14:17.084Z,1.30
2023-02-12T09:16:44.117Z,1.33
2023-02-12T09:19:13.846Z,1.70
2023-02-12T09:21:41.358Z,1.80
2023-02-12T09:24:08.860Z,1.13
2023-02-12T09:26:35.876Z,2.07
2023-02-12T09:29:04.513Z,2.30
2023-02-12T09:31:32.760Z,2.03
2023-02-12T09:34:02.790Z,1.80
2023-02-12T09:36:30.581Z,1.83
2023-02-12T09:38:59.353Z,1.63
2023-02-12T09:41:50.522Z,1.80
2023-02-12T09:44:31.181Z,2.00
2023-02-12T09:47:15.706Z,1.57
2023-02-12T09:49:45.677Z,1.47
2023-02-12T09:52:19.232Z,1.60
2023-02-12T09:54:48.368Z,1.50
2023-02-12T09:57:21.465Z,1.77
2023-02-12T09:59:54.379Z,1.40
2023-02-12T10:02:23.089Z,2.27
2023-02-12T10:05:00.771Z,2.70
2023-02-12T10:07:54.793Z,1.87
2023-02-12T10:10:39.815Z,1.30
2023-02-12T10:13:27.475Z,1.43
2023-02-12T10:16:09.969Z,1.77
2023-02-12T10:18:36.923Z,1.77
2023-02-12T10:21:18.337Z,1.70
2023-02-12T10:24:00.613Z,2.97
2023-02-12T10:26:31.597Z,1.70
2023-02-12T10:29:11.048Z,2.30
2023-02-12T10:31:42.285Z,1.67
2023-02-12T10:34:23.757Z,2.17
2023-02-12T10:36:55.856Z,1.47
2023-02-12T10:39:35.998Z,1.77
2023-02-12T10:42:08.624Z,1.90
2023-02-12T10:44:35.692Z,1.73
2023-02-12T10:47:02.575Z,2.77
2023-02-12T10:49:32.905Z,1.97
2023-02-12T10:52:24.551Z,1.93
2023-02-12T10:54:51.601Z,1.83
2023-02-12T10:57:30.864Z,2.40
2023-02-12T11:00:15.929Z,2.37
2023-02-12T11:03:04.474Z,2.73
2023-02-12T11:05:35.647Z,2.13
2023-02-12T11:08:03.603Z,2.20
2023-02-12T11:10:38.848Z,1.90
2023-02-12T11:13:06.301Z,1.90
2023-02-12T11:15:48.256Z,2.27
2023-02-12T11:18:32.692Z,1.83
2023-02-12T11:21:11.803Z,1.70
2023-02-12T11:23:40.085Z,2.13
2023-02-12T11:26:23.609Z,2.17
2023-02-12T11:28:53.711Z,1.97
2023-02-12T11:31:24.158Z,1.80
2023-02-12T11:34:19.786Z,2.10
2023-02-12T11:36:49.903Z,2.27
2023-02-12T11:39:38.893Z,1.90
2023-02-12T11:42:18.456Z,1.83
2023-02-12T11:44:59.281Z,2.00
2023-02-12T11:47:30.240Z,2.20
2023-02-12T11:50:29.658Z,2.40
2023-02-12T11:53:09.391Z,2.67
2023-02-12T11:55:39.942Z,2.43
2023-02-12T11:58:21.435Z,2.03
2023-02-12T12:01:02.252Z,1.57
2023-02-12T12:03:58.810Z,1.87
2023-02-12T12:06:29.689Z,2.33
2023-02-12T12:09:00.672Z,2.30
2023-02-12T12:11:54.752Z,1.83
2023-02-12T12:15:02.764Z,1.87
2023-02-12T12:18:17.618Z,2.23
2023-02-12T12:21:01.462Z,2.00
2023-02-12T12:23:46.349Z,1.67
2023-02-12T12:26:23.961Z,1.60
2023-02-12T12:29:02.883Z,1.50
2023-02-12T12:31:40.409Z,2.23
2023-02-12T12:34:17.541Z,1.67
2023-02-12T12:37:06.175Z,2.07
2023-02-12T12:40:07.811Z,1.60
2023-02-12T12:43:01.659Z,2.30
2023-02-12T12:46:02.742Z,1.83
2023-02-12T12:48:38.811Z,1.83
2023-02-12T12:51:30.978Z,1.57
2023-02-12T12:54:16.039Z,1.63
2023-02-12T12:57:05.605Z,1.90
2023-02-12T13:00:09.455Z,1.80
2023-02-12T13:02:57.945Z,1.67
2023-02-12T13:05:43.072Z,1.90
2023-02-12T13:08:28.740Z,2.33
2023-02-12T13:11:05.990Z,2.00
2023-02-12T13:13:39.262Z,1.50
2023-02-12T13:16:11.855Z,1.87
2023-02-12T13:18:57.374Z,2.63
2023-02-12T13:22:08.499Z,1.70
2023-02-12T13:24:47.415Z,2.10
2023-02-12T13:27:44.892Z,1.93
2023-02-12T13:30:15.670Z,1.50
2023-02-12T13:33:04.563Z,2.03
2023-02-12T13:35:32.628Z,1.73
2023-02-12T13:38:00.541Z,2.30
2023-02-12T13:40:29.344Z,2.23
2023-02-12T13:43:02.847Z,1.73
2023-02-12T13:45:47.947Z,2.13
2023-02-12T13:48:51.636Z,1.93
2023-02-12T13:51:18.615Z,2.13
2023-02-12T13:54:00.740Z,2.47
2023-02-12T13:56:43.647Z,1.83
2023-02-12T13:59:32.408Z,2.17
2023-02-12T14:02:20.751Z,1.93
2023-02-12T14:05:00.010Z,2.13
2023-02-12T14:07:51.988Z,1.70
2023-02-12T14:10:28.912Z,2.30
2023-02-12T14:13:09.608Z,2.03
2023-02-12T14:15:40.483Z,2.43
2023-02-12T14:18:30.557Z,2.50
2023-02-12T14:21:12.461Z,1.97
2023-02-12T14:23:43.686Z,2.27
2023-02-12T14:26:19.318Z,2.00
2023-02-12T14:28:49.307Z,1.90
2023-02-12T14:31:19.462Z,2.77
2023-02-12T14:34:13.660Z,2.80
2023-02-12T14:36:45.745Z,2.47
2023-02-12T14:39:24.398Z,2.73
2023-02-12T14:41:55.284Z,2.60
2023-02-12T14:44:27.372Z,2.67
2023-02-12T14:47:05.164Z,2.80
2023-02-12T14:49:48.899Z,2.70
2023-02-12T14:52:22.607Z,2.20
2023-02-12T14:54:51.391Z,2.80
2023-02-12T14:57:27.756Z,2.20
2023-02-12T15:00:18.351Z,2.57
2023-02-12T15:02:55.456Z,2.00
2023-02-12T15:05:29.312Z,2.27
2023-02-12T15:08:30.184Z,2.17
2023-02-12T15:11:38.781Z,2.90
2023-02-12T15:14:17.693Z,2.13
2023-02-12T15:16:52.792Z,1.80
2023-02-12T15:19:48.472Z,2.07
2023-02-12T15:22:40.543Z,2.53
2023-02-12T15:25:25.961Z,1.97
2023-02-12T15:28:21.820Z,2.33
2023-02-12T15:30:49.097Z,2.13
2023-02-12T15:33:28.806Z,2.37
2023-02-12T15:35:56.622Z,2.03
2023-02-12T15:38:43.819Z,2.23
2023-02-12T15:41:25.756Z,2.57
2023-02-12T15:43:52.729Z,1.90
2023-02-12T15:46:20.866Z,2.27
2023-02-12T15:48:47.867Z,2.10
2023-02-12T15:51:34.881Z,2.07
2023-02-12T15:54:05.862Z,2.60
2023-02-12T15:56:34.944Z,2.13
2023-02-12T15:59:02.721Z,2.20
2023-02-12T16:01:32.858Z,1.93
2023-02-12T16:04:05.666Z,2.43
2023-02-12T16:06:35.231Z,2.13
2023-02-12T16:09:28.859Z,2.23
2023-02-12T16:11:58.804Z,2.33
2023-02-12T16:14:43.421Z,2.10
2023-02-12T16:17:25.320Z,2.20
2023-02-12T16:20:21.816Z,2.43
2023-02-12T16:22:50.647Z,2.07
2023-02-12T16:25:27.798Z,3.07
2023-02-12T16:27:58.033Z,1.83
2023-02-12T16:30:34.560Z,1.90
2023-02-12T16:33:02.577Z,2.43
2023-02-12T16:35:32.953Z,2.40
2023-02-12T16:38:34.149Z,2.20
2023-02-12T16:41:19.810Z,2.40
2023-02-12T16:44:15.479Z,3.37
2023-02-12T16:46:48.367Z,3.13
2023-02-12T16:49:21.908Z,2.47
2023-02-12T16:51:50.016Z,2.10
2023-02-12T16:54:35.600Z,2.50
2023-02-12T16:57:02.942Z,2.53
2023-02-12T16:59:30.347Z,2.43
2023-02-12T17:02:00.826Z,2.60
2023-02-12T17:04:28.013Z,1.90
2023-02-12T17:06:55.171Z,2.90
2023-02-12T17:09:22.189Z,2.20
2023-02-12T17:11:49.508Z,2.63
2023-02-12T17:14:19.263Z,2.73
2023-02-12T17:16:46.775Z,2.80
2023-02-12T17:19:14.043Z,3.30
2023-02-12T17:21:49.447Z,2.53
2023-02-12T17:24:21.617Z,3.70
2023-02-12T17:26:50.619Z,2.30
2023-02-12T17:29:19.399Z,2.93
2023-02-12T17:31:47.683Z,2.40
2023-02-12T17:34:15.979Z,2.90
2023-02-12T17:36:43.299Z,2.83
2023-02-12T17:39:13.427Z,2.53
2023-02-12T17:41:41.047Z,2.47
2023-02-12T17:44:08.379Z,2.00
2023-02-12T17:46:35.355Z,2.20
2023-02-12T17:49:03.759Z,1.97
2023-02-12T17:51:31.039Z,2.03
2023-02-12T17:53:57.963Z,1.87
2023-02-12T17:56:25.743Z,2.40
2023-02-12T17:58:53.200Z,2.10
2023-02-12T18:01:22.485Z,2.40
2023-02-12T18:03:52.398Z,2.20
2023-02-12T18:06:26.302Z,2.13
2023-02-12T18:08:53.319Z,2.17
2023-02-12T18:11:21.711Z,1.83
2023-02-12T18:13:52.670Z,2.63
2023-02-12T18:16:20.039Z,1.70
2023-02-12T18:18:46.906Z,2.50
2023-02-12T18:21:15.646Z,1.73
2023-02-12T18:23:42.986Z,1.40
2023-02-12T18:26:12.481Z,1.60
2023-02-12T18:28:40.019Z,1.90
2023-02-12T18:31:07.739Z,1.90
2023-02-12T18:33:35.077Z,1.73
2023-02-12T18:36:10.743Z,2.30
2023-02-12T18:38:39.359Z,1.97
2023-02-12T18:41:16.049Z,1.60
2023-02-12T18:43:44.110Z,1.40
2023-02-12T18:46:20.794Z,1.50
2023-02-12T18:48:48.100Z,1.90
2023-02-12T18:51:17.279Z,1.80
2023-02-12T18:53:44.272Z,1.03
2023-02-12T18:56:12.147Z,1.63
2023-02-12T18:58:40.141Z,1.77
2023-02-12T19:01:18.841Z,1.50
2023-02-12T19:03:47.013Z,1.67
2023-02-12T19:06:14.123Z,1.77
2023-02-12T19:08:41.219Z,1.63
2023-02-12T19:11:10.309Z,1.60
2023-02-12T19:13:37.931Z,1.57
2023-02-12T19:16:09.984Z,1.30
2023-02-12T19:18:36.931Z,1.50
2023-02-12T19:21:12.710Z,1.83
2023-02-12T19:23:40.251Z,1.63
2023-02-12T19:26:09.688Z,2.53
2023-02-12T19:28:38.586Z,2.00
2023-02-12T19:31:12.930Z,1.57
2023-02-12T19:33:42.221Z,1.87
2023-02-12T19:36:11.559Z,1.80
2023-02-12T19:38:38.779Z,1.90
2023-02-12T19:41:11.125Z,1.63
2023-02-12T19:43:38.324Z,2.00
2023-02-12T19:46:10.788Z,1.40
2023-02-12T19:48:38.126Z,1.80
2023-02-12T19:51:05.411Z,1.73
2023-02-12T19:53:32.715Z,1.67
2023-02-12T19:56:03.415Z,1.77
2023-02-12T19:58:30.688Z,1.57
2023-02-12T20:00:58.143Z,1.53
2023-02-12T20:03:26.391Z,1.40
2023-02-12T20:06:05.312Z,1.50
2023-02-12T20:08:33.307Z,1.80
2023-02-12T20:11:00.252Z,1.90
2023-02-12T20:13:27.514Z,1.43
2023-02-12T20:15:54.649Z,1.50
2023-02-12T20:18:21.634Z,1.63
2023-02-12T20:20:48.593Z,1.90
2023-02-12T20:23:15.639Z,1.83
2023-02-12T20:25:44.200Z,1.87
2023-02-12T20:28:11.402Z,1.40
2023-02-12T20:30:42.894Z,1.27
2023-02-12T20:33:10.635Z,1.40
2023-02-12T20:35:37.624Z,1.77
2023-02-12T20:38:05.809Z,1.83
2023-02-12T20:40:33.498Z,1.40
2023-02-12T20:43:00.783Z,1.67
2023-02-12T20:45:28.094Z,1.43
2023-02-12T20:47:55.137Z,1.57
2023-02-12T20:50:22.017Z,1.23
2023-02-12T20:52:49.113Z,1.37
2023-02-12T20:55:16.167Z,1.10
2023-02-12T20:57:43.236Z,1.27
2023-02-12T21:00:10.646Z,1.60
2023-02-12T21:02:37.603Z,1.57
2023-02-12T21:05:04.724Z,1.17
2023-02-12T21:07:31.681Z,1.20
2023-02-12T21:09:58.646Z,1.40
2023-02-12T21:12:25.644Z,1.60
2023-02-12T21:14:52.552Z,1.77
2023-02-12T21:17:20.521Z,1.60
2023-02-12T21:19:47.456Z,1.30
2023-02-12T21:22:14.429Z,1.20
2023-02-12T21:24:41.376Z,1.63
2023-02-12T21:27:08.269Z,1.17
2023-02-12T21:29:35.186Z,1.63
2023-02-12T21:32:02.220Z,1.20
2023-02-12T21:34:29.384Z,1.23
2023-02-12T21:36:57.288Z,1.20
2023-02-12T21:39:27.772Z,1.40
2023-02-12T21:42:01.649Z,1.23
2023-02-12T21:44:30.065Z,1.27
2023-02-12T21:46:58.667Z,1.30
2023-02-12T21:49:27.661Z,1.67
2023-02-12T21:52:02.048Z,1.30
2023-02-12T21:54:30.366Z,1.30
2023-02-12T21:56:58.412Z,1.37
2023-02-12T21:59:26.493Z,1.17
2023-02-12T22:01:59.804Z,1.80
2023-02-12T22:04:27.641Z,1.20
2023-02-12T22:06:54.833Z,1.10
2023-02-12T22:09:23.059Z,1.20
2023-02-12T22:11:52.360Z,1.40
2023-02-12T22:14:20.432Z,0.97
2023-02-12T22:16:48.054Z,0.93
2023-02-12T22:19:15.207Z,0.93
2023-02-12T22:21:42.718Z,1.57
2023-02-12T22:24:13.649Z,0.97
2023-02-12T22:26:40.582Z,1.30
2023-02-12T22:29:10.358Z,1.07
2023-02-12T22:31:39.669Z,0.93
2023-02-12T22:34:11.447Z,1.27
2023-02-12T22:36:39.847Z,1.17
2023-02-12T22:39:07.241Z,1.30
2023-02-12T22:41:34.234Z,1.30
2023-02-12T22:44:02.437Z,1.20
2023-02-12T22:46:29.452Z,0.97
2023-02-12T22:48:56.603Z,1.40
2023-02-12T22:51:28.965Z,1.07
2023-02-12T22:53:56.747Z,1.30
2023-02-12T22:56:24.631Z,1.20
2023-02-12T22:58:57.182Z,1.17
2023-02-12T23:01:25.177Z,0.90
2023-02-12T23:03:52.471Z,1.03
2023-02-12T23:06:22.019Z,1.07
2023-02-12T23:08:51.030Z,1.33
2023-02-12T23:11:18.594Z,1.23
2023-02-12T23:13:46.316Z,1.03
2023-02-12T23:16:13.635Z,1.00
2023-02-12T23:18:40.538Z,1.20
2023-02-12T23:21:07.544Z,1.00
2023-02-12T23:23:34.686Z,0.90
2023-02-12T23:26:01.792Z,1.20
2023-02-12T23:28:29.753Z,0.70
2023-02-12T23:30:57.914Z,1.30
2023-02-12T23:33:25.041Z,0.80
2023-02-12T23:35:51.971Z,1.17
2023-02-12T23:38:19.243Z,1.10
2023-02-12T23:40:47.456Z,1.30
2023-02-12T23:43:14.389Z,1.20
2023-02-12T23:45:43.507Z,0.93
2023-02-12T23:48:11.111Z,0.90
2023-02-12T23:50:38.136Z,0.87
2023-02-12T23:53:05.036Z,1.00
2023-02-12T23:55:31.934Z,1.20
